Miguel Ángel Fernández

Scout - Atlético Tucumán
17 Jul 2027
Samstag
Verarbeitung

Persönlichkeit

Anpassungsfähigkeit (15) Ehrgeiz (3) Kontroverse (18) Loyalität (2) Druck (4) Professionalität (6) Fairness (16) Temperament (2)

Profil

Trainerstil Demokratisch
Lizenz Kontinentale Pro
Entschlossenheit 12
Menschenführung 7
Motivation 9
Disziplin 9
Arbeitszufriedenheit
74%
Ermüdung
0%
Rolle Scout
Gehalt 65.9K p/W
Vertrag 14.03.2030

Leistung

Verhalten Gut
Trainingseffektivität
21%
Spielerentwicklung
60%
Verletzungsprävention
55%
Taktische Umsetzung
30%

Letzte Ereignisse

Nahm an einer Scouting-Besprechung teil 7T her
Empfahl ein Transferziel 7T her
Nahm an einer Scouting-Besprechung teil 14T her
Empfahl ein Transferziel 14T her
Nahm an einer Scouting-Besprechung teil 21T her
Empfahl ein Transferziel 21T her
Nahm an einer Scouting-Besprechung teil 28T her
Nahm an einer Scouting-Besprechung teil 35T her

Aktuell beobachtet

138
Spieler Verein Status Fähigkeit Vertrauen Beobachtet Zuletzt beobachtet Letzte Stimme
Nazareno Petrecca Nueva Chicago Aktiv 87 / 112 62% 1 21.06.2027 Befürworten
Alan Torterolo Defensor Sporting Aktiv 86 / 109 40% 2 29.11.2026 -
Hílder Arboleda Union Magdalena Aktiv 86 / 96 40% 1 29.11.2026 -
Tobías Reinhart Universidad de Chile Aktiv 112 / 127 40% 6 27.11.2026 -
Juan Larios Piast Aktiv 118 / 132 40% 1 27.11.2026 -
Erik Lira Cruz Azul Aktiv 123 / 152 40% 2 25.11.2026 -
Matías Fernández Independiente Rivadavia Aktiv 131 / 121 40% 1 25.11.2026 -
Gian Nardelli Deportivo La Coruña Aktiv 112 / 118 40% 2 24.11.2026 -
Nicolás Romero Minnesota United FC Aktiv 131 / 149 40% 1 24.11.2026 -
Tomás Moschion Albion Aktiv 100 / 110 40% 4 22.11.2026 -
Jordan Lotomba Bloemfontein Celtic Aktiv 124 / 142 40% 2 22.11.2026 -
Luciano Cosentino Wanderers Aktiv 114 / 122 40% 3 20.11.2026 -
Sergey Gribov Dinamo Bryansk Aktiv 73 / 90 40% 1 19.11.2026 -
Facundo Mura Inter Miami CF Aktiv 132 / 113 40% 2 18.11.2026 -
Gastón Benedetti Estudiantes Aktiv 135 / 134 40% 1 18.11.2026 Mehr Infos nötig
Tobías Bovone Deportivo Pereira Aktiv 108 / 121 40% 2 17.11.2026 -
Nicolás Fernández Penarol Aktiv 131 / 133 40% 1 17.11.2026 -
Claudio Bravo Argentinos Juniors Aktiv 118 / 120 40% 1 17.11.2026 -
Damián Fernández Defensa y Justicia Aktiv 124 / 128 40% 1 17.11.2026 -
Alexander Lyng SonderjyskE Aktiv 103 / 121 40% 1 17.11.2026 -
Iovan Roganovich Sportivo Trinidense Aktiv 84 / 86 40% 2 16.11.2026 -
Jonás Luna Wanderers Aktiv 112 / 125 40% 1 16.11.2026 Mehr Infos nötig
Rodrigo González Aldosivi Aktiv 129 / 112 40% 1 13.11.2026 -
Juan Fernando Alfaro Olimpia Aktiv 113 / 110 40% 1 13.11.2026 -
Gonzalo Silva Progreso Aktiv 101 / 103 40% 1 12.11.2026 -
Martín Sarrafiore O'Higgins Aktiv 122 / 106 40% 2 11.11.2026 -
Santiago Toloza O'Higgins Aktiv 118 / 117 40% 3 11.11.2026 -
Martín Ortega Newell's Old Boys Aktiv 127 / 130 40% 1 10.11.2026 -
Francisco Álvarez Argentinos Juniors Aktiv 114 / 112 40% 1 10.11.2026 -
Luca Langoni New England Revolution Aktiv 136 / 123 40% 2 08.11.2026 -
Juan Díaz Universidad Catolica Aktiv 105 / 111 40% 1 07.11.2026 -
Nahuel Herrera Penarol Aktiv 126 / 120 40% 1 07.11.2026 -
Santiago Montiel Independiente Aktiv 119 / 114 40% 1 07.11.2026 -
Tomás Jacob Atlanta United FC Aktiv 118 / 142 40% 1 05.11.2026 -
Santiago Longo Belgrano Aktiv 129 / 135 40% 1 03.11.2026 -
Tomás Escalante Plaza Colonia Aktiv 120 / 126 40% 1 03.11.2026 -
Pablo Ruiz Real Salt Lake Aktiv 117 / 139 40% 1 02.11.2026 -
Juan Brunetta Torino Aktiv 149 / 138 40% 1 02.11.2026 Mehr Infos nötig
Emiliano Saliadarre Miramar Misiones Aktiv 111 / 101 40% 2 01.11.2026 -
Agustín Venezia Iquique Aktiv 101 / 109 40% 1 01.11.2026 -
Matías Espíndola Deportivo Maldonado Aktiv 100 / 121 40% 2 30.10.2026 -
Nicolás Azambuja Danubio Aktiv 119 / 137 40% 1 30.10.2026 -
Alexei Dominguez Pachuca Aktiv 115 / 121 40% 1 30.10.2026 -
Tiago Palacios Estudiantes Aktiv 125 / 117 40% 1 28.10.2026 -
Augusto Schott Talleres Aktiv 113 / 114 40% 1 28.10.2026 -
Matías Medina Sportivo Luqueno Aktiv 89 / 101 40% 2 27.10.2026 -
Inti López River Plate Aktiv 95 / 86 40% 1 27.10.2026 -
Joaquín Pereyra Minnesota United FC Aktiv 122 / 114 40% 3 26.10.2026 -
Lucas Girotti Trento Aktiv 90 / 91 40% 1 23.10.2026 -
Nicolás Garayalde Liverpool Montevideo Aktiv 118 / 106 40% 3 22.10.2026 -
Facundo Martínez Montevideo City Torque Aktiv 84 / 78 40% 1 22.10.2026 -
Diego Corral Universidad Catolica Aktiv 89 / 80 40% 1 22.10.2026 -
Enzo Loiodice KAA Gent Aktiv 127 / 133 40% 1 20.10.2026 -
Jonathan De Irastorza Levante Aktiv 125 / 134 40% 1 19.10.2026 -
Lautaro Piola Vélez Aktiv 92 / 119 40% 1 18.10.2026 -
Darren Yapi Colorado Rapids Aktiv 101 / 117 40% 1 18.10.2026 -
Gastón Hernández San Lorenzo Aktiv 132 / 117 40% 1 17.10.2026 -
Agustín Amado Boston River Aktiv 115 / 118 40% 1 16.10.2026 -
Franco Troyansky Audax Italiano Aktiv 110 / 96 40% 1 16.10.2026 -
Lautaro Pertusatti River Plate Aktiv 114 / 110 40% 1 15.10.2026 -
Andrés Herrera Columbus Crew Aktiv 130 / 111 40% 1 14.10.2026 -
Alex Luna Instituto Aktiv 125 / 123 40% 1 13.10.2026 -
Lucas Acosta Liverpool Montevideo Aktiv 118 / 117 40% 1 12.10.2026 -
Lucas Agazzi Defensor Sporting Aktiv 117 / 115 40% 1 12.10.2026 -
Martín Ojeda Orlando City Aktiv 144 / 144 40% 1 09.10.2026 -
Segundo Pachamé Plaza Colonia Aktiv 110 / 99 40% 1 09.10.2026 -
Abubakar Garba Nasarawa United Aktiv 102 / 97 40% 2 08.10.2026 -
Santiago Corbo Miramar Misiones Aktiv 110 / 94 40% 1 07.10.2026 -
Matías Palavecino Universidad Catolica Aktiv 108 / 115 40% 1 06.10.2026 -
Alejo Antilef Penarol Aktiv 119 / 98 40% 1 06.10.2026 -
Jerónimo Russo Newell's Old Boys Aktiv 101 / 98 40% 2 05.10.2026 -
Agustín Maidana San Marcos de Arica Aktiv 101 / 106 40% 1 05.10.2026 -
Pablo García Plaza Colonia Aktiv 105 / 96 40% 1 02.10.2026 -
Ezequiel Cañete Huachipato Aktiv 115 / 128 40% 1 02.10.2026 -
Nicolás Burgio Montevideo City Torque Aktiv 92 / 101 40% 1 02.10.2026 -
Pavel Núñez Nacional Aktiv 84 / 78 40% 1 02.10.2026 -
Sebastián Córdova Pumas UNAM Aktiv 127 / 149 40% 1 30.09.2026 -
Helinho Toluca Aktiv 136 / 141 40% 1 30.09.2026 -
Nicolás Castro Toluca Aktiv 132 / 127 40% 2 29.09.2026 -
Carlos Rodríguez Cruz Azul Aktiv 129 / 127 40% 1 29.09.2026 -
Facundo Velazco San Marcos de Arica Aktiv 100 / 110 40% 2 28.09.2026 -
Santiago Homenchenko Queretaro Aktiv 105 / 125 40% 1 28.09.2026 -
Nicolás Fonseca Leon Aktiv 114 / 118 40% 1 27.09.2026 -
Esequiel Barco Spartak Moscow Aktiv 150 / 148 40% 1 27.09.2026 -
Bryan Rovira Deportes Tolima Aktiv 128 / 121 40% 1 26.09.2026 -
Willer Ditta Cruz Azul Aktiv 144 / 139 40% 1 26.09.2026 -
Alejo Macelli Cerro Aktiv 104 / 114 40% 1 24.09.2026 -
Andrés Llinás Millonarios Aktiv 112 / 105 40% 1 24.09.2026 -
Alejo Cruz Juventud Aktiv 123 / 116 40% 2 22.09.2026 -
Carlos Álvarez Club America Aktiv 135 / 144 40% 1 22.09.2026 -
Ignacio Schor O'Higgins Aktiv 125 / 111 40% 2 21.09.2026 -
Uriel Antuna Pumas UNAM Aktiv 123 / 140 40% 1 21.09.2026 -
Juan Velázquez Atlético Madrid Aktiv 116 / 119 40% 1 20.09.2026 -
Mathías Tomás Puebla Aktiv 111 / 96 40% 1 20.09.2026 -
Cristian Barrios Junior Aktiv 127 / 125 40% 1 18.09.2026 -
Miguel Brizuela O'Higgins Aktiv 123 / 104 40% 1 16.09.2026 -
Gonzalo Luján Inter Miami CF Aktiv 126 / 134 40% 1 16.09.2026 -
Jhohan Romaña Leon Aktiv 125 / 139 40% 1 13.09.2026 -
Lucas Di Yorio Santos Laguna Aktiv 105 / 132 40% 1 12.09.2026 -
Emerson Batalla Atletico Bucaramanga Aktiv 125 / 124 40% 1 12.09.2026 -
Daniel Rivera Junior Aktiv 108 / 108 40% 1 12.09.2026 -
Emiliano Ancheta Nacional Aktiv 112 / 118 40% 1 12.09.2026 -
Facundo Batista Penarol Aktiv 117 / 127 40% 1 10.09.2026 -
Adonis Frías Atlas Aktiv 130 / 135 40% 2 08.09.2026 -
Diego Hernández Aguilas Doradas Aktiv 117 / 109 40% 2 08.09.2026 -
Tomás Chancalay Minnesota United FC Aktiv 122 / 122 40% 1 08.09.2026 -
Milton Valenzuela Atlas Aktiv 121 / 131 40% 1 07.09.2026 -
Julián Aude LA Galaxy Aktiv 123 / 118 40% 1 07.09.2026 -
Yeferson Rodallega Envigado Aktiv 110 / 118 40% 1 05.09.2026 -
Agustín Aguirre Boston River Aktiv 94 / 106 40% 1 03.09.2026 -
Rodrigo Cáseres Union La Calera Aktiv 106 / 113 40% 1 03.09.2026 -
Ezequiel Bullaude Santos Laguna Aktiv 131 / 121 40% 2 01.09.2026 -
Diego Chávez Deportivo Pasto Aktiv 117 / 125 40% 3 31.08.2026 -
Ronaldo Pájaro Deportivo Cali Aktiv 110 / 115 40% 1 27.08.2026 -
Víctor Guzmán Monterrey Aktiv 141 / 137 40% 1 26.08.2026 -
Santiago Simón Toluca Aktiv 107 / 113 40% 1 26.08.2026 -
Rodrigo Martínez Nacional Aktiv 83 / 82 40% 1 24.08.2026 -
Juan Francisco Rossel Universidad Catolica Aktiv 90 / 86 40% 1 24.08.2026 -
Sergio Barreto Pachuca Aktiv 134 / 142 40% 1 24.08.2026 -
Franco Romero Toluca Aktiv 116 / 119 40% 1 23.08.2026 -
Stiven Vega Millonarios Aktiv 108 / 118 40% 1 21.08.2026 -
Francisco Manenti Metropolitanos Aktiv 113 / 97 40% 1 19.08.2026 -
Carlos Airala Albion Aktiv 99 / 111 40% 1 19.08.2026 -
Alejandro Zendejas Club America Aktiv 124 / 136 40% 1 18.08.2026 -
Carlos Rotondi Cruz Azul Aktiv 129 / 139 40% 1 18.08.2026 -
Adrián Parra Deportes Tolima Aktiv 118 / 120 40% 1 17.08.2026 -
Ezequiel Neira Carabobo Aktiv 122 / 102 40% 1 17.08.2026 -
Yílmar Velásquez Santa Fe Aktiv 116 / 132 40% 1 17.08.2026 -
Simón Meza Cerrito Aktiv 91 / 97 40% 2 16.08.2026 -
Mateo Telechea Liverpool Montevideo Aktiv 93 / 80 40% 1 16.08.2026 -
Nicolás Pintado Rentistas Aktiv 95 / 94 40% 1 12.08.2026 -
Luciano Boggio Nacional Aktiv 130 / 115 40% 1 12.08.2026 Mehr Infos nötig
Juan Sebastián Ramírez Deportivo Cali Aktiv 88 / 95 40% 1 10.08.2026 -
Agustín Kahl Racing Aktiv 104 / 118 40% 1 07.08.2026 -
Marcos Mina America de Cali Aktiv 114 / 103 40% 1 07.08.2026 -
Daniel González Universidad Catolica Aktiv 105 / 123 40% 1 05.08.2026 -
Alan García Wanderers Aktiv 106 / 113 40% 1 05.08.2026 -
Jhomier Guerrero Millonarios Aktiv 118 / 116 40% 1 04.08.2026 -